Terminal Aerodrome Forecast
Issued by NWS

Home | Current Version | Previous Version | Text Only | Print | Product List | Glossary On
Versions: 1 2 3 4 5 6 7 8 9 10 11 12 13 14 15 16 17 18 19 20 21 22 23 24 25 26
421
FTUS43 KDLH 110547
TAFHYR
TAF
KHYR 110547Z 1106/1206 00000KT P6SM SCT025
     FM111600 22004KT P6SM SCT030 BKN080
     FM120100 23005KT P6SM VCSH BKN030 OVC050=

USA.gov is the U.S. government's official web portal to all federal, state and local government web resources and services.